createdAt,value
2022-12-15T00:00:29.017Z,26.15
2022-12-15T00:02:55.890Z,22.55
2022-12-15T00:05:22.704Z,17.45
2022-12-15T00:07:49.443Z,16.55
2022-12-15T00:10:16.426Z,17.55
2022-12-15T00:12:44.640Z,19.23
2022-12-15T00:15:11.511Z,19.77
2022-12-15T00:17:38.230Z,20.17
2022-12-15T00:20:05.687Z,16.65
2022-12-15T00:22:32.386Z,17.30
2022-12-15T00:25:01.421Z,21.20
2022-12-15T00:27:28.169Z,17.15
2022-12-15T00:29:56.240Z,20.35
2022-12-15T00:32:23.147Z,15.80
2022-12-15T00:34:49.922Z,20.05
2022-12-15T00:37:16.647Z,21.20
2022-12-15T00:39:43.440Z,19.85
2022-12-15T00:42:10.926Z,19.00
2022-12-15T00:44:37.688Z,20.23
2022-12-15T00:47:06.006Z,16.00
2022-12-15T00:49:32.847Z,18.48
2022-12-15T00:51:59.639Z,18.75
2022-12-15T00:54:26.343Z,15.43
2022-12-15T00:56:53.125Z,13.02
2022-12-15T00:59:19.819Z,16.38
2022-12-15T01:01:46.855Z,16.13
2022-12-15T01:04:18.147Z,15.93
2022-12-15T01:06:44.869Z,12.25
2022-12-15T01:09:12.989Z,17.42
2022-12-15T01:11:39.894Z,13.15
2022-12-15T01:14:06.602Z,14.90
2022-12-15T01:16:33.436Z,14.57
2022-12-15T01:19:00.193Z,15.95
2022-12-15T01:21:28.278Z,13.57
2022-12-15T01:23:55.004Z,16.27
2022-12-15T01:26:21.746Z,20.65
2022-12-15T01:28:48.485Z,18.27
2022-12-15T01:31:15.418Z,16.73
2022-12-15T01:33:42.158Z,16.83
2022-12-15T01:36:10.202Z,18.20
2022-12-15T01:38:38.452Z,17.38
2022-12-15T01:41:07.453Z,17.60
2022-12-15T01:43:36.170Z,15.35
2022-12-15T01:46:05.787Z,14.65
2022-12-15T01:48:40.858Z,19.08
2022-12-15T01:51:13.300Z,20.45
2022-12-15T01:53:45.254Z,15.38
2022-12-15T01:56:19.621Z,18.90
2022-12-15T01:58:49.324Z,17.05
2022-12-15T02:01:16.981Z,15.70
2022-12-15T02:03:44.745Z,15.90
2022-12-15T02:06:12.996Z,18.58
2022-12-15T02:08:44.954Z,13.52
2022-12-15T02:11:36.497Z,15.73
2022-12-15T02:14:05.571Z,14.68
2022-12-15T02:16:45.356Z,19.27
2022-12-15T02:19:29.552Z,15.95
2022-12-15T02:22:16.893Z,18.67
2022-12-15T02:25:00.812Z,17.55
2022-12-15T02:27:49.989Z,17.55
2022-12-15T02:30:26.486Z,14.77
2022-12-15T02:33:10.931Z,18.05
2022-12-15T02:35:47.219Z,14.70
2022-12-15T02:38:13.999Z,18.27
2022-12-15T02:40:40.902Z,17.65
2022-12-15T02:43:09.970Z,15.38
2022-12-15T02:45:49.512Z,13.82
2022-12-15T02:48:27.123Z,13.80
2022-12-15T02:51:16.205Z,14.13
2022-12-15T02:53:58.995Z,14.82
2022-12-15T02:56:31.075Z,14.27
2022-12-15T02:59:04.629Z,11.13
2022-12-15T03:01:37.267Z,16.20
2022-12-15T03:04:07.084Z,10.18
2022-12-15T03:06:33.893Z,17.55
2022-12-15T03:09:00.849Z,15.15
2022-12-15T03:11:28.141Z,15.88
2022-12-15T03:13:55.155Z,13.90
2022-12-15T03:16:22.117Z,15.18
2022-12-15T03:18:50.232Z,15.20
2022-12-15T03:21:17.027Z,14.65
2022-12-15T03:23:43.926Z,13.50
2022-12-15T03:26:10.723Z,13.70
2022-12-15T03:28:37.593Z,12.77
2022-12-15T03:31:04.338Z,11.32
2022-12-15T03:33:33.711Z,12.18
2022-12-15T03:36:02.055Z,17.85
2022-12-15T03:38:28.858Z,13.80
2022-12-15T03:40:55.682Z,14.10
2022-12-15T03:43:22.455Z,13.98
2022-12-15T03:45:49.240Z,15.93
2022-12-15T03:48:15.977Z,5.93
2022-12-15T03:50:42.741Z,18.55
2022-12-15T03:53:10.970Z,16.65
2022-12-15T03:55:37.692Z,11.38
2022-12-15T03:58:04.456Z,10.57
2022-12-15T04:00:31.251Z,12.68
2022-12-15T04:02:58.125Z,14.52
2022-12-15T04:05:27.229Z,16.98
2022-12-15T04:07:54.464Z,6.82
2022-12-15T04:10:25.296Z,13.15
2022-12-15T04:13:00.300Z,11.52
2022-12-15T04:15:27.574Z,6.72
2022-12-15T04:17:54.755Z,11.68
2022-12-15T04:20:22.422Z,9.32
2022-12-15T04:22:50.422Z,10.77
2022-12-15T04:25:19.081Z,11.43
2022-12-15T04:27:48.069Z,12.63
2022-12-15T04:30:15.034Z,16.10
2022-12-15T04:32:41.756Z,14.75
2022-12-15T04:35:09.170Z,5.88
2022-12-15T04:37:35.953Z,8.00
2022-12-15T04:40:02.919Z,11.55
2022-12-15T04:42:31.614Z,12.23
2022-12-15T04:45:03.212Z,5.60
2022-12-15T04:47:29.940Z,5.97
2022-12-15T04:49:56.795Z,10.73
2022-12-15T04:52:24.391Z,15.80
2022-12-15T04:54:51.131Z,12.88
2022-12-15T04:57:18.012Z,4.85
2022-12-15T04:59:44.730Z,11.65
2022-12-15T05:02:12.947Z,7.35
2022-12-15T05:04:39.811Z,4.80
2022-12-15T05:07:06.644Z,14.25
2022-12-15T05:09:33.404Z,10.52
2022-12-15T05:12:00.178Z,7.35
2022-12-15T05:14:26.884Z,10.65
2022-12-15T05:16:53.670Z,9.32
2022-12-15T05:19:21.753Z,14.80
2022-12-15T05:21:48.501Z,13.20
2022-12-15T05:24:15.274Z,13.40
2022-12-15T05:26:42.025Z,11.73
2022-12-15T05:29:08.754Z,13.73
2022-12-15T05:31:35.655Z,11.65
2022-12-15T05:34:05.459Z,8.30
2022-12-15T05:36:34.048Z,13.90
2022-12-15T05:39:00.782Z,18.17
2022-12-15T05:41:27.520Z,14.25
2022-12-15T05:43:54.369Z,14.82
2022-12-15T05:46:21.201Z,11.02
2022-12-15T05:48:47.941Z,12.73
2022-12-15T05:51:14.958Z,16.13
2022-12-15T05:53:43.054Z,11.40
2022-12-15T05:56:12.429Z,15.57
2022-12-15T05:58:44.763Z,13.30
2022-12-15T06:01:14.459Z,12.55
2022-12-15T06:03:41.698Z,14.90
2022-12-15T06:06:09.652Z,8.73
2022-12-15T06:08:38.391Z,12.73
2022-12-15T06:11:07.344Z,11.25
2022-12-15T06:13:34.984Z,14.70
2022-12-15T06:16:03.960Z,13.93
2022-12-15T06:18:32.764Z,14.45
2022-12-15T06:21:00.623Z,11.80
2022-12-15T06:23:28.456Z,11.75
2022-12-15T06:25:56.140Z,12.82
2022-12-15T06:28:24.336Z,14.30
2022-12-15T06:30:52.248Z,3.92
2022-12-15T06:33:19.604Z,14.23
2022-12-15T06:35:46.414Z,11.45
2022-12-15T06:38:13.249Z,14.93
2022-12-15T06:40:40.291Z,13.10
2022-12-15T06:43:07.433Z,16.20
2022-12-15T06:45:35.636Z,14.43
2022-12-15T06:48:02.557Z,12.45
2022-12-15T06:50:31.756Z,14.40
2022-12-15T06:52:59.253Z,10.68
2022-12-15T06:55:26.009Z,11.68
2022-12-15T06:57:52.886Z,11.68
2022-12-15T07:00:20.066Z,13.52
2022-12-15T07:02:50.171Z,14.13
2022-12-15T07:05:17.372Z,11.57
2022-12-15T07:07:44.094Z,11.60
2022-12-15T07:10:10.883Z,10.65
2022-12-15T07:12:37.738Z,12.10
2022-12-15T07:15:05.245Z,13.43
2022-12-15T07:17:31.978Z,14.63
2022-12-15T07:20:00.091Z,13.10
2022-12-15T07:22:28.298Z,13.70
2022-12-15T07:24:55.137Z,12.90
2022-12-15T07:27:21.891Z,12.85
2022-12-15T07:29:48.616Z,12.68
2022-12-15T07:32:15.360Z,12.18
2022-12-15T07:34:42.206Z,12.95
2022-12-15T07:37:10.307Z,12.02
2022-12-15T07:39:37.042Z,9.75
2022-12-15T07:42:03.907Z,13.82
2022-12-15T07:44:30.651Z,12.95
2022-12-15T07:46:57.366Z,14.32
2022-12-15T07:49:24.157Z,13.00
2022-12-15T07:51:50.895Z,12.00
2022-12-15T07:54:18.957Z,10.90
2022-12-15T07:56:50.158Z,13.38
2022-12-15T07:59:17.776Z,14.68
2022-12-15T08:01:44.640Z,11.05
2022-12-15T08:04:11.559Z,11.10
2022-12-15T08:06:38.436Z,8.15
2022-12-15T08:09:05.166Z,9.40
2022-12-15T08:11:33.359Z,9.27
2022-12-15T08:14:03.197Z,10.15
2022-12-15T08:16:31.338Z,10.38
2022-12-15T08:18:58.158Z,11.52
2022-12-15T08:21:25.050Z,11.65
2022-12-15T08:23:51.784Z,9.63
2022-12-15T08:26:21.590Z,10.65
2022-12-15T08:28:53.669Z,10.50
2022-12-15T08:31:22.976Z,11.63
2022-12-15T08:33:50.636Z,11.73
2022-12-15T08:36:19.316Z,11.52
2022-12-15T08:38:47.154Z,7.03
2022-12-15T08:41:15.959Z,10.73
2022-12-15T08:43:48.121Z,10.15
2022-12-15T08:46:18.691Z,10.30
2022-12-15T08:48:45.588Z,9.38
2022-12-15T08:51:12.735Z,9.80
2022-12-15T08:53:39.646Z,9.50
2022-12-15T08:56:08.271Z,10.90
2022-12-15T08:58:35.305Z,10.18
2022-12-15T09:01:03.610Z,11.90
2022-12-15T09:03:33.585Z,11.93
2022-12-15T09:06:02.496Z,13.15
2022-12-15T09:08:29.404Z,12.35
2022-12-15T09:10:57.229Z,10.95
2022-12-15T09:13:24.370Z,9.75
2022-12-15T09:16:11.757Z,12.35
2022-12-15T09:18:42.357Z,12.50
2022-12-15T09:21:10.088Z,11.70
2022-12-15T09:23:37.334Z,10.60
2022-12-15T09:26:06.643Z,12.23
2022-12-15T09:28:33.869Z,11.48
2022-12-15T09:31:03.289Z,13.50
2022-12-15T09:33:30.419Z,11.82
2022-12-15T09:35:58.753Z,10.07
2022-12-15T09:38:25.480Z,12.52
2022-12-15T09:40:52.274Z,12.57
2022-12-15T09:43:47.088Z,11.18
2022-12-15T09:46:20.907Z,10.88
2022-12-15T09:48:50.206Z,8.70
2022-12-15T09:51:19.149Z,14.52
2022-12-15T09:53:55.883Z,10.65
2022-12-15T09:56:29.032Z,13.18
2022-12-15T09:59:03.306Z,8.55
2022-12-15T10:01:37.729Z,12.10
2022-12-15T10:04:10.194Z,12.90
2022-12-15T10:06:44.918Z,9.10
2022-12-15T10:09:20.033Z,10.07
2022-12-15T10:11:52.442Z,12.05
2022-12-15T10:14:27.093Z,11.18
2022-12-15T10:17:02.554Z,12.32
2022-12-15T10:19:38.978Z,11.85
2022-12-15T10:22:11.942Z,10.48
2022-12-15T10:25:08.595Z,11.73
2022-12-15T10:27:43.029Z,11.40
2022-12-15T10:30:12.316Z,10.63
2022-12-15T10:32:51.403Z,11.93
2022-12-15T10:35:22.069Z,12.18
2022-12-15T10:37:50.329Z,12.23
2022-12-15T10:40:20.658Z,11.60
2022-12-15T10:42:49.750Z,10.23
2022-12-15T10:45:37.808Z,9.88
2022-12-15T10:48:05.569Z,7.20
2022-12-15T10:50:33.562Z,9.00
2022-12-15T10:53:08.096Z,9.60
2022-12-15T10:55:38.710Z,8.75
2022-12-15T10:58:16.115Z,10.00
2022-12-15T11:00:42.845Z,10.60
2022-12-15T11:03:22.437Z,9.45
2022-12-15T11:05:52.862Z,9.85
2022-12-15T11:08:22.371Z,10.85
2022-12-15T11:10:51.702Z,9.63
2022-12-15T11:13:20.282Z,10.90
2022-12-15T11:15:50.755Z,9.93
2022-12-15T11:18:41.017Z,9.38
2022-12-15T11:21:13.892Z,6.22
2022-12-15T11:23:57.771Z,10.38
2022-12-15T11:26:37.023Z,9.80
2022-12-15T11:29:14.556Z,12.10
2022-12-15T11:31:44.046Z,9.73
2022-12-15T11:34:14.464Z,10.43
2022-12-15T11:36:58.533Z,8.93
2022-12-15T11:39:41.530Z,10.40
2022-12-15T11:42:16.575Z,9.93
2022-12-15T11:44:52.700Z,11.07
2022-12-15T11:47:26.331Z,10.00
2022-12-15T11:50:17.327Z,11.37
2022-12-15T11:53:03.857Z,11.73
2022-12-15T11:55:41.755Z,9.23
2022-12-15T11:58:49.291Z,10.17
2022-12-15T12:01:29.011Z,9.32
2022-12-15T12:04:04.299Z,8.90
2022-12-15T12:06:38.372Z,10.38
2022-12-15T12:09:30.155Z,9.50
2022-12-15T12:12:12.748Z,9.20
2022-12-15T12:14:51.010Z,9.20
2022-12-15T12:17:26.974Z,10.65
2022-12-15T12:19:58.216Z,10.67
2022-12-15T12:22:29.559Z,11.50
2022-12-15T12:25:00.944Z,8.47
2022-12-15T12:27:37.935Z,8.90
2022-12-15T12:30:11.822Z,10.00
2022-12-15T12:32:46.644Z,9.10
2022-12-15T12:35:30.788Z,9.10
2022-12-15T12:38:03.932Z,10.30
2022-12-15T12:41:10.700Z,8.37
2022-12-15T12:43:42.719Z,9.02
2022-12-15T12:46:16.514Z,10.90
2022-12-15T12:48:48.873Z,9.07
2022-12-15T12:51:23.110Z,9.37
2022-12-15T12:53:50.542Z,9.37
2022-12-15T12:56:33.286Z,9.00
2022-12-15T12:59:02.672Z,9.60
2022-12-15T13:01:35.341Z,9.63
2022-12-15T13:04:07.587Z,8.73
2022-12-15T13:06:57.174Z,9.23
2022-12-15T13:09:36.062Z,10.03
2022-12-15T13:12:20.952Z,10.67
2022-12-15T13:14:54.236Z,10.50
2022-12-15T13:17:29.136Z,9.07
2022-12-15T13:20:21.959Z,8.77
2022-12-15T13:22:49.203Z,9.27
2022-12-15T13:25:34.577Z,8.97
2022-12-15T13:28:18.609Z,9.10
2022-12-15T13:31:22.923Z,8.07
2022-12-15T13:33:56.760Z,8.97
2022-12-15T13:36:55.786Z,9.60
2022-12-15T13:39:35.088Z,10.43
2022-12-15T13:42:38.814Z,10.70
2022-12-15T13:45:33.303Z,11.90
2022-12-15T13:48:01.388Z,10.40
2022-12-15T13:50:45.423Z,9.93
2022-12-15T13:53:22.088Z,11.43
2022-12-15T13:56:00.433Z,10.30
2022-12-15T13:58:29.660Z,12.10
2022-12-15T14:00:58.130Z,12.30
2022-12-15T14:03:26.604Z,12.87
2022-12-15T14:05:56.616Z,11.70
2022-12-15T14:08:25.240Z,13.17
2022-12-15T14:10:53.675Z,13.03
2022-12-15T14:13:24.114Z,10.30
2022-12-15T14:15:53.482Z,13.53
2022-12-15T14:18:26.733Z,12.53
2022-12-15T14:20:56.761Z,13.50
2022-12-15T14:23:26.013Z,11.00
2022-12-15T14:25:54.654Z,11.13
2022-12-15T14:28:27.990Z,12.23
2022-12-15T14:31:02.438Z,13.37
2022-12-15T14:33:30.008Z,12.37
2022-12-15T14:36:00.155Z,12.83
2022-12-15T14:38:31.833Z,10.97
2022-12-15T14:41:03.063Z,12.13
2022-12-15T14:43:33.616Z,12.47
2022-12-15T14:46:08.085Z,12.30
2022-12-15T14:51:30.958Z,13.00
2022-12-15T14:53:57.878Z,11.30
2022-12-15T14:56:31.143Z,12.93
2022-12-15T14:59:01.043Z,11.10
2022-12-15T15:01:30.633Z,13.10
2022-12-15T15:03:15.652Z,12.93
2022-12-15T15:04:01.798Z,12.57
2022-12-15T15:06:36.829Z,15.10
2022-12-15T15:09:16.659Z,13.43
2022-12-15T15:11:43.777Z,16.23
2022-12-15T15:14:14.741Z,14.40
2022-12-15T15:16:42.716Z,14.30
2022-12-15T15:19:17.162Z,16.60
2022-12-15T15:21:48.526Z,17.37
2022-12-15T15:24:24.815Z,18.30
2022-12-15T15:26:52.810Z,15.77
2022-12-15T15:29:36.622Z,18.00
2022-12-15T15:32:14.012Z,15.43
2022-12-15T15:34:40.823Z,15.48
2022-12-15T15:37:18.332Z,15.60
2022-12-15T15:39:47.210Z,12.87
2022-12-15T15:42:13.943Z,14.87
2022-12-15T15:44:40.973Z,17.40
2022-12-15T15:47:19.209Z,13.70
2022-12-15T15:49:46.484Z,15.10
2022-12-15T15:52:14.709Z,14.32
2022-12-15T15:54:41.626Z,11.30
2022-12-15T15:57:13.231Z,14.13
2022-12-15T15:59:39.967Z,13.77
2022-12-15T16:02:06.877Z,16.70
2022-12-15T16:04:33.803Z,15.57
2022-12-15T16:07:00.543Z,18.80
2022-12-15T16:09:28.684Z,17.60
2022-12-15T16:11:55.946Z,20.10
2022-12-15T16:14:22.665Z,16.90
2022-12-15T16:16:49.476Z,15.65
2022-12-15T16:19:16.219Z,15.05
2022-12-15T16:21:43.151Z,15.07
2022-12-15T16:24:15.151Z,15.45
2022-12-15T16:26:46.725Z,14.63
2022-12-15T16:29:15.150Z,16.58
2022-12-15T16:31:42.286Z,14.45
2022-12-15T16:34:09.189Z,15.73
2022-12-15T16:36:36.108Z,14.53
2022-12-15T16:39:03.754Z,15.13
2022-12-15T16:41:30.674Z,15.35
2022-12-15T16:43:58.800Z,15.70
2022-12-15T16:46:25.558Z,17.20
2022-12-15T16:48:52.358Z,13.00
2022-12-15T16:51:33.313Z,16.10
2022-12-15T16:54:00.182Z,14.10
2022-12-15T16:56:26.914Z,14.93
2022-12-15T16:59:15.659Z,15.20
2022-12-15T17:01:41.803Z,16.57
2022-12-15T17:04:08.950Z,17.17
2022-12-15T17:06:35.818Z,15.93
2022-12-15T17:09:03.332Z,15.20
2022-12-15T17:11:30.194Z,14.63
2022-12-15T17:14:00.089Z,15.85
2022-12-15T17:16:29.561Z,14.75
2022-12-15T17:18:57.680Z,18.33
2022-12-15T17:21:28.615Z,14.48
2022-12-15T17:23:58.867Z,11.70
2022-12-15T17:26:30.083Z,14.50
2022-12-15T17:29:03.244Z,24.65
2022-12-15T17:31:35.139Z,14.43
2022-12-15T17:34:21.768Z,20.02
2022-12-15T17:36:48.555Z,16.85
2022-12-15T17:39:20.476Z,19.52
2022-12-15T17:42:04.799Z,17.77
2022-12-15T17:44:36.657Z,14.90
2022-12-15T17:47:05.590Z,15.40
2022-12-15T17:49:36.405Z,15.55
2022-12-15T17:52:15.147Z,17.27
2022-12-15T17:54:41.943Z,15.07
2022-12-15T17:57:11.108Z,17.52
2022-12-15T17:59:37.850Z,12.00
2022-12-15T18:02:11.020Z,14.77
2022-12-15T18:04:39.526Z,14.18
2022-12-15T18:07:09.546Z,13.88
2022-12-15T18:09:36.296Z,13.80
2022-12-15T18:12:10.974Z,16.70
2022-12-15T18:14:40.313Z,16.65
2022-12-15T18:17:07.100Z,17.17
2022-12-15T18:19:35.173Z,16.95
2022-12-15T18:22:04.692Z,17.23
2022-12-15T18:24:31.601Z,12.98
2022-12-15T18:26:58.294Z,16.83
2022-12-15T18:29:25.209Z,16.30
2022-12-15T18:31:52.042Z,13.40
2022-12-15T18:34:20.206Z,15.95
2022-12-15T18:36:47.169Z,16.27
2022-12-15T18:39:18.411Z,17.20
2022-12-15T18:41:45.459Z,15.60
2022-12-15T18:44:18.879Z,11.77
2022-12-15T18:46:48.139Z,16.05
2022-12-15T18:49:19.479Z,13.80
2022-12-15T18:52:10.385Z,15.70
2022-12-15T18:54:42.073Z,14.50
2022-12-15T18:57:43.506Z,16.15
2022-12-15T19:00:31.610Z,13.27
2022-12-15T19:02:59.096Z,15.05
2022-12-15T19:05:29.936Z,17.00
2022-12-15T19:07:58.833Z,14.23
2022-12-15T19:10:28.761Z,15.88
2022-12-15T19:12:58.684Z,11.35
2022-12-15T19:15:29.650Z,11.43
2022-12-15T19:17:56.390Z,16.02
2022-12-15T19:20:23.227Z,13.88
2022-12-15T19:22:51.395Z,10.90
2022-12-15T19:25:25.409Z,12.98
2022-12-15T19:27:54.479Z,11.70
2022-12-15T19:30:22.532Z,17.45
2022-12-15T19:32:49.274Z,15.00
2022-12-15T19:35:16.048Z,12.27
2022-12-15T19:37:44.649Z,13.00
2022-12-15T19:40:19.122Z,13.73
2022-12-15T19:42:47.279Z,15.13
2022-12-15T19:45:17.378Z,15.10
2022-12-15T19:47:44.423Z,11.75
2022-12-15T19:50:14.211Z,16.10
2022-12-15T19:52:42.377Z,10.00
2022-12-15T19:55:15.037Z,12.10
2022-12-15T19:57:41.830Z,16.15
2022-12-15T20:00:16.415Z,13.43
2022-12-15T20:02:43.506Z,13.70
2022-12-15T20:05:10.709Z,11.27
2022-12-15T20:07:37.721Z,13.85
2022-12-15T20:10:07.081Z,14.07
2022-12-15T20:12:33.830Z,12.15
2022-12-15T20:15:00.620Z,13.35
2022-12-15T20:17:28.741Z,12.73
2022-12-15T20:19:55.542Z,14.60
2022-12-15T20:22:22.345Z,12.30
2022-12-15T20:24:49.292Z,14.32
2022-12-15T20:27:19.684Z,13.10
2022-12-15T20:29:46.376Z,14.70
2022-12-15T20:32:18.081Z,13.70
2022-12-15T20:34:46.922Z,14.82
2022-12-15T20:37:18.559Z,13.02
2022-12-15T20:39:45.294Z,12.88
2022-12-15T20:42:14.782Z,12.70
2022-12-15T20:44:41.562Z,13.15
2022-12-15T20:47:15.961Z,15.55
2022-12-15T20:49:42.721Z,9.85
2022-12-15T20:52:19.742Z,14.32
2022-12-15T20:54:46.513Z,14.27
2022-12-15T20:57:13.229Z,14.70
2022-12-15T20:59:39.955Z,11.77
2022-12-15T21:02:17.493Z,13.38
2022-12-15T21:04:44.465Z,12.43
2022-12-15T21:07:12.674Z,14.55
2022-12-15T21:09:39.822Z,12.23
2022-12-15T21:12:16.970Z,14.18
2022-12-15T21:14:44.087Z,13.82
2022-12-15T21:17:14.875Z,12.02
2022-12-15T21:19:41.786Z,14.60
2022-12-15T21:22:18.519Z,14.93
2022-12-15T21:24:45.755Z,15.10
2022-12-15T21:27:13.244Z,13.23
2022-12-15T21:29:40.023Z,13.13
2022-12-15T21:32:06.802Z,14.25
2022-12-15T21:34:33.743Z,12.55
2022-12-15T21:37:01.282Z,12.02
2022-12-15T21:39:33.168Z,13.95
2022-12-15T21:42:02.792Z,11.18
2022-12-15T21:44:29.549Z,14.25
2022-12-15T21:46:56.376Z,12.25
2022-12-15T21:49:23.203Z,13.85
2022-12-15T21:51:52.304Z,13.05
2022-12-15T21:54:25.980Z,11.18
2022-12-15T21:56:57.124Z,13.45
2022-12-15T21:59:26.915Z,10.75
2022-12-15T22:01:53.870Z,14.20
2022-12-15T22:04:25.134Z,13.10
2022-12-15T22:06:51.960Z,11.02
2022-12-15T22:09:19.353Z,13.25
2022-12-15T22:11:49.272Z,15.00
2022-12-15T22:14:23.289Z,12.80
2022-12-15T22:16:50.049Z,12.52
2022-12-15T22:19:17.113Z,14.18
2022-12-15T22:21:43.876Z,16.40
2022-12-15T22:24:11.589Z,15.77
2022-12-15T22:26:40.023Z,13.68
2022-12-15T22:29:12.986Z,14.75
2022-12-15T22:31:41.282Z,13.25
2022-12-15T22:34:13.349Z,13.25
2022-12-15T22:36:40.135Z,19.00
2022-12-15T22:39:08.310Z,19.20
2022-12-15T22:41:35.145Z,17.10
2022-12-15T22:44:02.274Z,16.08
2022-12-15T22:46:29.132Z,16.02
2022-12-15T22:48:57.468Z,17.05
2022-12-15T22:51:24.233Z,15.15
2022-12-15T22:53:51.648Z,14.10
2022-12-15T22:56:24.521Z,13.35
2022-12-15T22:58:55.982Z,13.85
2022-12-15T23:01:23.686Z,13.90
2022-12-15T23:03:51.497Z,13.43
2022-12-15T23:06:19.899Z,15.88
2022-12-15T23:08:48.258Z,15.20
2022-12-15T23:11:16.953Z,16.65
2022-12-15T23:13:44.022Z,15.30
2022-12-15T23:16:11.030Z,12.73
2022-12-15T23:18:37.864Z,15.15
2022-12-15T23:21:04.925Z,15.80
2022-12-15T23:23:33.351Z,12.90
2022-12-15T23:26:00.339Z,17.23
2022-12-15T23:28:29.871Z,13.95
2022-12-15T23:30:56.674Z,18.15
2022-12-15T23:33:23.910Z,18.08
2022-12-15T23:35:54.840Z,15.35
2022-12-15T23:38:25.634Z,17.15
2022-12-15T23:40:56.052Z,21.67
2022-12-15T23:43:23.125Z,17.15
2022-12-15T23:45:56.178Z,16.77
2022-12-15T23:48:23.049Z,17.30
2022-12-15T23:50:49.802Z,13.20
2022-12-15T23:53:17.320Z,16.90
2022-12-15T23:55:44.074Z,20.80
2022-12-15T23:58:12.220Z,20.40
